Time;durP1;ratioP1;P1;durP2;ratioP2;P2;SDS_P1;SDS_P2;PMS_P1;PMS_P2;Temp;Humidity;BMP_temperature;BMP_pressure;BME280_temperature;BME280_humidity;BME280_pressure;Samples;Min_cycle;Max_cycle;Signal;HPM_P1;HPM_P2
2023/01/06 00:01:07;;;;;;;0.57;0.53;;;;;;;;;;4979291;28;20288;-86
2023/01/06 00:03:36;;;;;;;0.27;0.27;;;;;;;;;;4993449;28;20208;-87
2023/01/06 00:06:05;;;;;;;0.40;0.30;;;;;;;;;;4996772;28;20260;-87
2023/01/06 00:08:32;;;;;;;0.63;0.30;;;;;;;;;;4993859;28;20209;-87
2023/01/06 00:10:59;;;;;;;0.57;0.40;;;;;;;;;;4992621;28;20240;-87
2023/01/06 00:13:27;;;;;;;0.60;0.27;;;;;;;;;;4984219;28;20237;-86
2023/01/06 00:15:54;;;;;;;1.03;0.50;;;;;;;;;;4985482;28;20296;-87
2023/01/06 00:18:21;;;;;;;0.47;0.47;;;;;;;;;;4995286;28;20197;-87
2023/01/06 00:20:50;;;;;;;0.80;0.80;;;;;;;;;;4995305;28;20217;-87
2023/01/06 00:23:17;;;;;;;0.73;0.70;;;;;;;;;;4991083;28;20257;-87
2023/01/06 00:25:49;;;;;;;0.70;0.70;;;;;;;;;;4996163;28;20296;-87
2023/01/06 00:28:17;;;;;;;1.37;0.63;;;;;;;;;;4997324;28;20253;-87
2023/01/06 00:30:44;;;;;;;0.60;0.40;;;;;;;;;;4996779;28;20233;-86
2023/01/06 00:33:11;;;;;;;0.33;0.33;;;;;;;;;;4992663;28;20197;-87
2023/01/06 00:35:38;;;;;;;0.37;0.37;;;;;;;;;;4996153;28;20292;-87
2023/01/06 00:38:07;;;;;;;0.40;0.40;;;;;;;;;;4996772;28;20236;-87
2023/01/06 00:40:35;;;;;;;1.07;0.50;;;;;;;;;;4996065;28;20198;-87
2023/01/06 00:43:02;;;;;;;4.03;0.63;;;;;;;;;;4996581;28;20201;-86
2023/01/06 00:45:29;;;;;;;0.97;0.50;;;;;;;;;;4989226;28;20233;-87
2023/01/06 00:47:56;;;;;;;0.60;0.50;;;;;;;;;;4994521;28;20225;-87
2023/01/06 00:50:24;;;;;;;1.03;0.60;;;;;;;;;;4994096;28;20298;-86
2023/01/06 00:52:51;;;;;;;0.60;0.60;;;;;;;;;;4996505;28;20236;-87
2023/01/06 00:55:20;;;;;;;1.27;0.70;;;;;;;;;;4995501;28;20245;-87
2023/01/06 00:57:48;;;;;;;0.80;0.80;;;;;;;;;;4981512;28;20190;-86
2023/01/06 01:00:16;;;;;;;0.73;0.73;;;;;;;;;;4993193;28;20221;-87
2023/01/06 01:02:43;;;;;;;0.70;0.70;;;;;;;;;;4995833;28;20232;-87
2023/01/06 01:05:10;;;;;;;0.60;0.60;;;;;;;;;;4995717;28;20252;-87
2023/01/06 01:07:39;;;;;;;1.03;0.60;;;;;;;;;;4994977;28;20268;-87
2023/01/06 01:10:08;;;;;;;1.40;0.87;;;;;;;;;;4987551;28;20221;-86
2023/01/06 01:12:37;;;;;;;0.80;0.80;;;;;;;;;;4992830;28;20309;-86
2023/01/06 01:15:04;;;;;;;3.70;0.93;;;;;;;;;;4995393;28;20304;-87
2023/01/06 01:17:32;;;;;;;0.87;0.87;;;;;;;;;;4989162;28;20214;-86
2023/01/06 01:19:59;;;;;;;0.90;0.90;;;;;;;;;;4983807;28;20285;-86
2023/01/06 01:22:29;;;;;;;1.73;1.37;;;;;;;;;;4991554;28;20198;-86
2023/01/06 01:24:56;;;;;;;1.33;0.87;;;;;;;;;;4988169;28;20281;-87
2023/01/06 01:27:24;;;;;;;1.77;0.93;;;;;;;;;;4990979;28;20230;-87
2023/01/06 01:29:52;;;;;;;0.87;0.87;;;;;;;;;;4999550;28;20233;-87
2023/01/06 01:32:19;;;;;;;2.70;0.90;;;;;;;;;;4991648;28;20281;-87
2023/01/06 01:34:47;;;;;;;0.90;0.90;;;;;;;;;;4992473;28;20233;-86
2023/01/06 01:37:14;;;;;;;2.20;0.90;;;;;;;;;;4990324;28;20229;-86
2023/01/06 01:39:42;;;;;;;2.10;0.90;;;;;;;;;;4985297;28;20268;-87
2023/01/06 01:42:14;;;;;;;1.13;1.03;;;;;;;;;;4993265;28;20241;-87
2023/01/06 01:44:56;;;;;;;0.93;0.93;;;;;;;;;;4995687;28;20211;-87
2023/01/06 01:47:27;;;;;;;0.90;0.90;;;;;;;;;;4995417;28;20193;-87
2023/01/06 01:49:58;;;;;;;2.97;1.13;;;;;;;;;;4995006;28;20201;-87
2023/01/06 01:52:26;;;;;;;1.37;1.00;;;;;;;;;;4995118;28;20269;-87
2023/01/06 01:54:54;;;;;;;1.07;1.00;;;;;;;;;;4988828;28;20228;-87
2023/01/06 01:57:24;;;;;;;1.07;0.90;;;;;;;;;;4994968;28;20206;-87
2023/01/06 01:59:52;;;;;;;2.97;1.00;;;;;;;;;;4994937;28;20285;-87
2023/01/06 02:02:20;;;;;;;0.93;0.90;;;;;;;;;;4993370;28;20284;-87
2023/01/06 02:04:50;;;;;;;1.40;1.00;;;;;;;;;;4991504;28;20218;-87
2023/01/06 02:07:18;;;;;;;2.60;0.90;;;;;;;;;;4986304;28;20206;-87
2023/01/06 02:09:47;;;;;;;2.07;1.00;;;;;;;;;;4993526;28;20201;-86
2023/01/06 02:12:15;;;;;;;1.43;0.90;;;;;;;;;;4994334;28;20237;-87
2023/01/06 02:14:42;;;;;;;1.20;1.00;;;;;;;;;;4984007;28;20226;-86
2023/01/06 02:17:14;;;;;;;1.70;1.00;;;;;;;;;;4990801;28;20240;-86
2023/01/06 02:19:55;;;;;;;2.27;1.07;;;;;;;;;;4987458;28;20304;-86
2023/01/06 02:22:33;;;;;;;3.57;1.30;;;;;;;;;;4994689;28;20272;-87
2023/01/06 02:25:09;;;;;;;1.57;1.00;;;;;;;;;;4982095;28;20269;-86
2023/01/06 02:27:52;;;;;;;4.57;1.20;;;;;;;;;;4995203;28;20197;-86
2023/01/06 02:30:31;;;;;;;1.37;1.17;;;;;;;;;;4994194;28;20201;-86
2023/01/06 02:33:07;;;;;;;1.47;0.97;;;;;;;;;;4994569;28;20225;-87
2023/01/06 02:35:50;;;;;;;2.27;1.23;;;;;;;;;;4993429;28;20220;-87
2023/01/06 02:38:25;;;;;;;1.73;1.13;;;;;;;;;;4996296;28;20244;-87
2023/01/06 02:41:00;;;;;;;2.10;1.13;;;;;;;;;;4983437;28;20224;-87
2023/01/06 02:43:29;;;;;;;2.30;1.10;;;;;;;;;;4993516;28;20197;-86
2023/01/06 02:46:01;;;;;;;2.20;1.17;;;;;;;;;;4982991;28;20197;-87
2023/01/06 02:48:35;;;;;;;1.33;1.03;;;;;;;;;;4986480;28;20194;-87
2023/01/06 02:51:05;;;;;;;1.13;1.00;;;;;;;;;;4990204;28;20213;-87
2023/01/06 02:53:36;;;;;;;1.20;0.90;;;;;;;;;;4992913;28;20205;-86
2023/01/06 02:56:03;;;;;;;2.13;1.40;;;;;;;;;;4988494;28;20228;-87
2023/01/06 02:58:35;;;;;;;2.03;1.23;;;;;;;;;;4992324;28;20225;-87
2023/01/06 03:01:04;;;;;;;2.53;1.37;;;;;;;;;;4990659;28;20264;-87
2023/01/06 03:03:34;;;;;;;2.10;1.23;;;;;;;;;;5023046;23;20204;-60
2023/01/06 03:06:05;;;;;;;3.00;1.20;;;;;;;;;;5027880;22;20246;-61
2023/01/06 03:08:33;;;;;;;2.37;1.10;;;;;;;;;;5026900;28;20207;-60
2023/01/06 03:11:01;;;;;;;2.00;1.20;;;;;;;;;;5027222;28;20212;-61
2023/01/06 03:18:54;;;;;;;2.03;1.30;;;;;;;;;;5005434;28;20217;-61
2023/01/06 03:21:23;;;;;;;2.30;1.10;;;;;;;;;;5009119;28;20265;-61
2023/01/06 03:23:50;;;;;;;1.33;1.20;;;;;;;;;;5006557;28;20200;-61
2023/01/06 03:26:17;;;;;;;2.67;1.20;;;;;;;;;;5006079;28;20200;-61
2023/01/06 03:28:44;;;;;;;1.43;1.00;;;;;;;;;;5006460;28;20205;-61
2023/01/06 03:31:15;;;;;;;1.53;1.40;;;;;;;;;;5008624;28;20205;-61
2023/01/06 03:33:48;;;;;;;2.70;1.43;;;;;;;;;;5002987;28;20251;-60
2023/01/06 03:36:20;;;;;;;4.17;1.37;;;;;;;;;;5003532;28;20236;-61
2023/01/06 03:38:53;;;;;;;2.20;1.20;;;;;;;;;;5006449;28;20404;-62
2023/01/06 03:43:10;;;;;;;3.73;1.30;;;;;;;;;;5006373;28;20205;-62
2023/01/06 03:44:13;;;;;;;4.70;1.30;;;;;;;;;;5011853;28;20209;-61
2023/01/06 03:46:43;;;;;;;1.80;1.30;;;;;;;;;;5009178;28;20207;-60
2023/01/06 03:49:13;;;;;;;3.80;1.30;;;;;;;;;;5009936;28;20207;-61
2023/01/06 03:51:46;;;;;;;5.77;1.60;;;;;;;;;;5007236;28;20209;-61
2023/01/06 03:54:19;;;;;;;3.23;1.40;;;;;;;;;;5010225;28;20279;-61
2023/01/06 03:56:49;;;;;;;2.20;1.40;;;;;;;;;;5010648;28;20197;-61
2023/01/06 03:59:18;;;;;;;3.67;1.60;;;;;;;;;;5008976;28;20216;-61
2023/01/06 04:01:46;;;;;;;3.67;1.40;;;;;;;;;;5009442;28;20300;-61
2023/01/06 04:04:13;;;;;;;2.97;1.33;;;;;;;;;;5012941;28;20212;-61
2023/01/06 04:06:40;;;;;;;4.23;1.33;;;;;;;;;;5007688;28;20201;-59
2023/01/06 04:09:08;;;;;;;3.57;1.30;;;;;;;;;;5007998;28;20213;-61
2023/01/06 04:14:20;;;;;;;4.10;1.17;;;;;;;;;;5007673;28;20209;-61
2023/01/06 04:16:48;;;;;;;3.83;1.40;;;;;;;;;;5002074;28;20222;-62
2023/01/06 04:19:15;;;;;;;4.67;1.50;;;;;;;;;;5012313;28;20208;-59
2023/01/06 04:21:42;;;;;;;2.03;1.20;;;;;;;;;;5011098;28;20212;-61
2023/01/06 04:24:10;;;;;;;5.13;1.40;;;;;;;;;;5007798;28;20205;-60
2023/01/06 04:26:38;;;;;;;3.70;1.30;;;;;;;;;;5006340;28;20197;-60
2023/01/06 04:29:05;;;;;;;3.07;1.20;;;;;;;;;;5005642;28;20209;-61
2023/01/06 04:31:32;;;;;;;2.37;1.30;;;;;;;;;;5011774;28;20197;-61
2023/01/06 04:33:59;;;;;;;3.80;1.30;;;;;;;;;;5008392;28;20205;-62
2023/01/06 04:36:26;;;;;;;4.53;1.10;;;;;;;;;;5008286;28;20236;-61
2023/01/06 04:38:53;;;;;;;2.67;1.30;;;;;;;;;;5007169;28;20207;-61
2023/01/06 04:41:22;;;;;;;5.20;1.30;;;;;;;;;;5009081;28;20208;-61
2023/01/06 04:43:49;;;;;;;2.93;1.30;;;;;;;;;;5007387;28;20219;-61
2023/01/06 04:46:16;;;;;;;3.67;1.43;;;;;;;;;;5009888;28;20292;-61
2023/01/06 04:48:43;;;;;;;3.13;1.10;;;;;;;;;;5008159;28;20205;-61
2023/01/06 04:51:11;;;;;;;3.10;1.10;;;;;;;;;;5011343;28;20205;-61
2023/01/06 04:53:39;;;;;;;2.77;1.30;;;;;;;;;;4999168;28;20205;-61
2023/01/06 04:56:07;;;;;;;3.77;1.17;;;;;;;;;;5009545;28;20228;-62
2023/01/06 04:58:36;;;;;;;2.43;1.00;;;;;;;;;;5009184;28;20232;-61
2023/01/06 05:01:04;;;;;;;2.60;1.27;;;;;;;;;;5006270;28;20215;-61
2023/01/06 05:03:31;;;;;;;2.27;1.40;;;;;;;;;;5008179;28;20197;-59
2023/01/06 05:06:01;;;;;;;4.27;1.60;;;;;;;;;;5006634;28;20217;-60
2023/01/06 05:08:28;;;;;;;2.47;1.37;;;;;;;;;;5005305;28;20214;-61
2023/01/06 05:10:59;;;;;;;2.63;1.20;;;;;;;;;;5006101;28;20209;-62
2023/01/06 05:13:26;;;;;;;2.97;1.20;;;;;;;;;;5007131;28;20201;-61
2023/01/06 05:15:55;;;;;;;3.57;1.00;;;;;;;;;;5011396;28;20227;-61
2023/01/06 05:18:22;;;;;;;6.63;1.33;;;;;;;;;;5009188;28;20237;-62
2023/01/06 05:20:51;;;;;;;3.37;1.20;;;;;;;;;;5001597;28;20215;-61
2023/01/06 05:23:18;;;;;;;3.23;1.00;;;;;;;;;;5007466;28;20204;-61
2023/01/06 05:25:45;;;;;;;3.57;1.20;;;;;;;;;;5004037;28;20209;-58
2023/01/06 05:28:13;;;;;;;3.33;1.13;;;;;;;;;;5008808;28;20208;-60
2023/01/06 05:30:40;;;;;;;1.80;0.93;;;;;;;;;;5007805;28;20197;-61
2023/01/06 05:33:09;;;;;;;2.83;1.40;;;;;;;;;;5006998;28;20197;-60
2023/01/06 05:35:36;;;;;;;2.83;1.00;;;;;;;;;;5010003;28;20224;-60
2023/01/06 05:38:03;;;;;;;1.50;0.90;;;;;;;;;;5000504;28;20197;-61
2023/01/06 05:40:30;;;;;;;2.10;1.10;;;;;;;;;;5006651;28;20201;-61
2023/01/06 05:42:58;;;;;;;2.13;1.17;;;;;;;;;;5006402;28;20212;-60
2023/01/06 05:45:25;;;;;;;2.70;1.40;;;;;;;;;;5009989;28;20212;-61
2023/01/06 05:47:53;;;;;;;3.37;1.10;;;;;;;;;;5005888;28;20229;-62
2023/01/06 05:50:22;;;;;;;2.83;0.90;;;;;;;;;;5008205;28;20201;-62
2023/01/06 05:52:49;;;;;;;2.53;1.07;;;;;;;;;;5010428;28;20208;-60
2023/01/06 05:55:16;;;;;;;2.07;1.10;;;;;;;;;;5008653;28;20240;-61
2023/01/06 05:57:44;;;;;;;2.10;0.90;;;;;;;;;;5004565;28;20209;-61
2023/01/06 06:00:12;;;;;;;1.03;0.87;;;;;;;;;;5005967;28;20205;-61
2023/01/06 06:02:39;;;;;;;1.30;0.90;;;;;;;;;;5001131;28;20219;-61
2023/01/06 06:05:06;;;;;;;2.50;0.87;;;;;;;;;;5010504;28;20212;-61
2023/01/06 06:07:34;;;;;;;3.73;1.00;;;;;;;;;;5009393;28;20208;-62
2023/01/06 06:10:01;;;;;;;3.33;1.00;;;;;;;;;;5009158;28;20201;-61
2023/01/06 06:12:29;;;;;;;2.97;1.20;;;;;;;;;;5007969;28;20197;-61
2023/01/06 06:14:56;;;;;;;7.13;1.40;;;;;;;;;;5010304;28;20298;-60
2023/01/06 06:17:24;;;;;;;3.17;1.20;;;;;;;;;;5004272;28;20256;-61
2023/01/06 06:19:51;;;;;;;0.87;0.80;;;;;;;;;;5001605;28;20201;-60
2023/01/06 06:22:18;;;;;;;0.90;0.90;;;;;;;;;;5000700;28;20215;-60
2023/01/06 06:24:46;;;;;;;3.63;1.60;;;;;;;;;;5008326;28;20205;-61
2023/01/06 06:27:13;;;;;;;1.13;1.03;;;;;;;;;;5007145;28;20227;-61
2023/01/06 06:29:41;;;;;;;3.20;1.20;;;;;;;;;;5005294;28;20201;-61
2023/01/06 06:32:08;;;;;;;2.27;1.07;;;;;;;;;;4998655;28;20216;-61
2023/01/06 06:34:35;;;;;;;1.17;1.00;;;;;;;;;;5003757;28;20201;-60
2023/01/06 06:37:02;;;;;;;3.70;1.10;;;;;;;;;;5006094;28;20232;-61
2023/01/06 06:39:29;;;;;;;1.40;1.30;;;;;;;;;;4998072;28;20228;-60
2023/01/06 06:41:57;;;;;;;3.77;0.90;;;;;;;;;;5003608;28;20205;-61
2023/01/06 06:44:25;;;;;;;2.33;0.93;;;;;;;;;;5000446;28;20200;-61
2023/01/06 06:46:52;;;;;;;1.93;1.10;;;;;;;;;;5002938;28;20204;-61
2023/01/06 06:49:19;;;;;;;1.60;1.50;;;;;;;;;;5006767;28;20210;-61
2023/01/06 06:51:47;;;;;;;2.40;2.00;;;;;;;;;;5009172;28;20200;-62
2023/01/06 06:54:14;;;;;;;2.03;1.50;;;;;;;;;;5005659;28;20247;-61
2023/01/06 06:56:41;;;;;;;4.33;1.70;;;;;;;;;;5003817;28;20224;-61
2023/01/06 06:59:10;;;;;;;1.53;1.43;;;;;;;;;;5005008;28;20204;-61
2023/01/06 07:01:37;;;;;;;1.87;1.00;;;;;;;;;;5005288;28;20211;-61
2023/01/06 07:04:04;;;;;;;4.50;1.20;;;;;;;;;;4996330;28;20205;-62
2023/01/06 07:06:31;;;;;;;2.03;1.30;;;;;;;;;;5007414;28;20201;-61
2023/01/06 07:08:58;;;;;;;4.00;1.30;;;;;;;;;;5005425;28;20213;-60
2023/01/06 07:11:25;;;;;;;1.20;1.10;;;;;;;;;;5005001;28;20213;-61
2023/01/06 07:13:52;;;;;;;1.83;1.10;;;;;;;;;;5013021;28;20206;-61
2023/01/06 07:16:22;;;;;;;2.20;1.30;;;;;;;;;;4995716;28;20216;-61
2023/01/06 07:18:49;;;;;;;1.20;1.10;;;;;;;;;;5004167;28;20239;-61
2023/01/06 07:21:16;;;;;;;1.50;0.90;;;;;;;;;;5010279;28;20215;-62
2023/01/06 07:23:43;;;;;;;1.20;1.20;;;;;;;;;;5010181;28;20217;-61
2023/01/06 07:26:10;;;;;;;2.80;1.33;;;;;;;;;;5011952;28;20197;-61
2023/01/06 07:28:37;;;;;;;2.60;1.40;;;;;;;;;;5014600;28;20200;-61
2023/01/06 07:31:05;;;;;;;1.27;1.10;;;;;;;;;;5011284;28;20215;-61
2023/01/06 07:33:33;;;;;;;1.63;1.40;;;;;;;;;;5009712;28;20205;-61
2023/01/06 07:36:00;;;;;;;4.40;1.70;;;;;;;;;;5011277;28;20231;-60
2023/01/06 07:38:28;;;;;;;1.30;1.20;;;;;;;;;;5011342;28;20219;-60
2023/01/06 07:40:59;;;;;;;2.27;1.23;;;;;;;;;;5013150;28;20220;-60
2023/01/06 07:43:27;;;;;;;1.10;1.10;;;;;;;;;;5007442;28;20201;-61
2023/01/06 07:45:54;;;;;;;2.77;1.30;;;;;;;;;;5009537;28;20204;-60
2023/01/06 07:48:21;;;;;;;1.93;1.40;;;;;;;;;;5009337;28;20205;-61
2023/01/06 07:50:49;;;;;;;1.37;1.23;;;;;;;;;;5008909;28;20217;-60
2023/01/06 07:53:16;;;;;;;1.30;1.20;;;;;;;;;;5009922;28;20204;-61
2023/01/06 07:55:50;;;;;;;1.70;1.20;;;;;;;;;;5007915;28;20223;-60
2023/01/06 07:58:17;;;;;;;3.33;1.40;;;;;;;;;;5013729;28;20211;-61
2023/01/06 08:00:45;;;;;;;3.80;1.20;;;;;;;;;;5005606;28;20197;-60
2023/01/06 08:03:12;;;;;;;2.37;1.10;;;;;;;;;;4999287;28;20228;-60
2023/01/06 08:05:40;;;;;;;1.73;1.20;;;;;;;;;;4997848;28;20207;-61
2023/01/06 08:08:09;;;;;;;1.57;1.00;;;;;;;;;;4997206;28;20212;-61
2023/01/06 08:10:38;;;;;;;1.10;1.00;;;;;;;;;;5004335;28;20197;-61
2023/01/06 08:13:06;;;;;;;1.80;1.07;;;;;;;;;;5009522;28;20197;-61
2023/01/06 08:15:33;;;;;;;1.57;1.10;;;;;;;;;;5005861;28;20241;-60
2023/01/06 08:18:00;;;;;;;1.53;1.30;;;;;;;;;;5008324;28;20279;-61
2023/01/06 08:20:28;;;;;;;1.20;1.10;;;;;;;;;;5011402;28;20198;-60
2023/01/06 08:22:55;;;;;;;1.90;1.00;;;;;;;;;;4995077;28;20213;-60
2023/01/06 08:25:23;;;;;;;1.50;1.20;;;;;;;;;;4996879;28;20196;-61
2023/01/06 08:27:51;;;;;;;1.77;1.30;;;;;;;;;;5001328;28;20205;-61
2023/01/06 08:30:20;;;;;;;1.47;1.20;;;;;;;;;;5005595;28;20201;-60
2023/01/06 08:32:47;;;;;;;1.13;1.00;;;;;;;;;;5010390;28;20291;-61
2023/01/06 08:35:15;;;;;;;2.37;1.10;;;;;;;;;;5011232;28;20251;-60
2023/01/06 08:37:42;;;;;;;1.13;1.00;;;;;;;;;;5008253;28;20232;-60
2023/01/06 08:40:09;;;;;;;1.53;0.90;;;;;;;;;;5011808;28;20213;-60
2023/01/06 08:42:38;;;;;;;2.03;1.00;;;;;;;;;;5012322;28;20197;-60
2023/01/06 08:45:06;;;;;;;2.20;1.13;;;;;;;;;;5005307;28;20201;-56
2023/01/06 08:47:33;;;;;;;1.03;0.97;;;;;;;;;;5009095;28;20197;-61
2023/01/06 08:50:01;;;;;;;1.43;1.10;;;;;;;;;;5012964;28;20228;-57
2023/01/06 08:52:28;;;;;;;3.17;1.33;;;;;;;;;;5009071;28;20208;-61
2023/01/06 08:54:55;;;;;;;1.03;1.03;;;;;;;;;;5014019;28;20220;-61
2023/01/06 08:57:22;;;;;;;1.63;1.00;;;;;;;;;;5002032;28;20221;-61
2023/01/06 08:59:51;;;;;;;2.60;1.10;;;;;;;;;;5009747;28;20236;-61
2023/01/06 09:02:18;;;;;;;1.10;0.93;;;;;;;;;;5012914;28;20234;-60
2023/01/06 09:04:45;;;;;;;2.67;1.30;;;;;;;;;;5011752;28;20208;-61
2023/01/06 09:07:12;;;;;;;1.20;1.10;;;;;;;;;;5009350;28;20209;-62
2023/01/06 09:09:39;;;;;;;1.07;1.00;;;;;;;;;;5011012;28;20204;-61
2023/01/06 09:12:06;;;;;;;1.60;1.13;;;;;;;;;;5009821;28;20197;-61
2023/01/06 09:14:33;;;;;;;2.13;1.37;;;;;;;;;;5009102;28;20209;-61
2023/01/06 09:17:02;;;;;;;1.10;1.10;;;;;;;;;;5011370;28;20248;-60
2023/01/06 09:19:29;;;;;;;1.70;1.10;;;;;;;;;;5012786;28;20209;-61
2023/01/06 09:21:56;;;;;;;2.07;1.43;;;;;;;;;;5012377;28;20216;-61
2023/01/06 09:24:23;;;;;;;1.57;1.30;;;;;;;;;;5009935;28;20212;-60
2023/01/06 09:26:50;;;;;;;1.40;1.20;;;;;;;;;;5007680;28;20204;-61
2023/01/06 09:29:18;;;;;;;1.70;1.30;;;;;;;;;;5012802;28;20220;-61
2023/01/06 09:31:45;;;;;;;2.20;1.20;;;;;;;;;;5009246;28;20216;-62
2023/01/06 09:34:14;;;;;;;1.53;1.30;;;;;;;;;;5010494;28;20204;-61
2023/01/06 09:36:41;;;;;;;1.80;1.03;;;;;;;;;;5010909;28;20217;-61
2023/01/06 09:39:08;;;;;;;1.57;1.07;;;;;;;;;;5002661;28;20209;-60
2023/01/06 09:41:52;;;;;;;1.43;1.20;;;;;;;;;;5003008;28;20207;-62
2023/01/06 09:44:21;;;;;;;1.90;1.20;;;;;;;;;;5010056;28;20259;-60
2023/01/06 09:46:50;;;;;;;2.57;1.13;;;;;;;;;;5012529;28;20197;-61
2023/01/06 09:49:23;;;;;;;1.30;1.20;;;;;;;;;;5004900;28;20241;-61
2023/01/06 09:51:51;;;;;;;1.67;1.10;;;;;;;;;;5007974;28;20219;-61
2023/01/06 09:54:20;;;;;;;1.73;1.03;;;;;;;;;;5010278;28;20212;-61
2023/01/06 09:56:49;;;;;;;0.87;0.80;;;;;;;;;;5008199;28;20228;-61
2023/01/06 09:59:20;;;;;;;1.20;1.00;;;;;;;;;;5010700;28;20205;-61
2023/01/06 10:01:49;;;;;;;0.97;0.90;;;;;;;;;;5009010;28;20212;-60
2023/01/06 10:04:17;;;;;;;7.37;3.83;;;;;;;;;;5002157;28;20204;-60
2023/01/06 10:06:50;;;;;;;1.80;0.80;;;;;;;;;;5006941;28;20247;-60
2023/01/06 10:09:22;;;;;;;0.93;0.93;;;;;;;;;;5006974;28;20209;-60
2023/01/06 10:11:54;;;;;;;1.60;0.90;;;;;;;;;;5007641;28;20209;-61
2023/01/06 10:14:24;;;;;;;1.17;1.07;;;;;;;;;;5007493;28;20215;-60
2023/01/06 10:16:59;;;;;;;1.60;1.00;;;;;;;;;;5006235;28;20240;-61
2023/01/06 10:19:31;;;;;;;1.23;0.80;;;;;;;;;;5010104;28;20200;-60
2023/01/06 10:22:02;;;;;;;0.90;0.90;;;;;;;;;;5006811;28;20204;-61
2023/01/06 10:24:32;;;;;;;0.70;0.70;;;;;;;;;;5009376;28;20205;-60
2023/01/06 10:27:02;;;;;;;1.30;1.20;;;;;;;;;;5003545;28;20213;-61
2023/01/06 10:29:31;;;;;;;1.43;1.00;;;;;;;;;;5003972;28;20212;-62
2023/01/06 10:31:59;;;;;;;1.37;1.00;;;;;;;;;;5006624;28;20208;-61
2023/01/06 10:34:27;;;;;;;1.33;1.10;;;;;;;;;;5007710;28;20204;-61
2023/01/06 10:36:55;;;;;;;1.20;1.03;;;;;;;;;;5010428;28;20225;-61
2023/01/06 10:39:25;;;;;;;0.80;0.80;;;;;;;;;;5010049;28;20211;-61
2023/01/06 10:42:54;;;;;;;1.23;1.00;;;;;;;;;;5004546;28;20209;-60
2023/01/06 10:44:44;;;;;;;1.37;1.00;;;;;;;;;;5001310;28;20209;-59
2023/01/06 10:47:15;;;;;;;1.27;0.90;;;;;;;;;;5007449;28;20212;-60
2023/01/06 10:49:42;;;;;;;2.23;1.10;;;;;;;;;;5008039;28;20204;-61
2023/01/06 10:52:09;;;;;;;3.50;1.07;;;;;;;;;;5007382;28;20205;-61
2023/01/06 10:54:38;;;;;;;2.10;1.00;;;;;;;;;;5009550;28;20201;-62
2023/01/06 10:57:09;;;;;;;1.30;1.00;;;;;;;;;;5007847;28;20259;-61
2023/01/06 11:00:00;;;;;;;1.10;1.00;;;;;;;;;;5007711;28;20204;-60
2023/01/06 11:02:29;;;;;;;1.17;0.80;;;;;;;;;;5008152;28;20216;-61
2023/01/06 11:05:01;;;;;;;1.80;1.00;;;;;;;;;;5010559;28;20208;-61
2023/01/06 11:07:29;;;;;;;2.10;1.10;;;;;;;;;;5006975;28;20196;-61
2023/01/06 11:09:59;;;;;;;3.03;1.10;;;;;;;;;;5008081;28;20216;-61
2023/01/06 11:12:27;;;;;;;0.90;0.90;;;;;;;;;;5008659;28;20200;-61
2023/01/06 11:14:56;;;;;;;0.87;0.87;;;;;;;;;;5006461;28;20205;-61
2023/01/06 11:17:23;;;;;;;1.93;1.07;;;;;;;;;;5010328;28;20247;-60
2023/01/06 11:20:05;;;;;;;1.17;0.87;;;;;;;;;;5008194;28;20200;-61
2023/01/06 11:22:33;;;;;;;0.80;0.80;;;;;;;;;;5010420;28;20208;-61
2023/01/06 11:25:02;;;;;;;1.37;1.00;;;;;;;;;;5007577;28;20208;-59
2023/01/06 11:27:29;;;;;;;1.10;1.00;;;;;;;;;;5010879;28;20256;-61
2023/01/06 11:29:56;;;;;;;1.00;0.90;;;;;;;;;;5006631;28;20225;-61
2023/01/06 11:32:25;;;;;;;1.33;1.10;;;;;;;;;;5012057;28;20212;-60
2023/01/06 11:34:54;;;;;;;0.90;0.80;;;;;;;;;;5010885;28;20207;-61
2023/01/06 11:37:30;;;;;;;1.23;0.87;;;;;;;;;;5010203;28;20311;-60
2023/01/06 11:39:57;;;;;;;1.27;0.90;;;;;;;;;;5006052;28;20212;-59
2023/01/06 11:42:26;;;;;;;3.00;1.10;;;;;;;;;;5011167;28;20216;-59
2023/01/06 11:44:53;;;;;;;1.57;0.93;;;;;;;;;;5006226;28;20197;-61
2023/01/06 11:47:22;;;;;;;1.10;1.00;;;;;;;;;;5009624;28;20199;-62
2023/01/06 11:49:50;;;;;;;1.03;0.90;;;;;;;;;;5011834;28;20259;-62
2023/01/06 11:52:22;;;;;;;0.90;0.90;;;;;;;;;;5005298;28;20211;-60
2023/01/06 11:54:57;;;;;;;2.10;0.97;;;;;;;;;;5003770;28;20201;-60
2023/01/06 11:57:30;;;;;;;0.70;0.70;;;;;;;;;;5007248;28;20224;-60
2023/01/06 12:00:04;;;;;;;1.50;1.00;;;;;;;;;;5008356;28;20209;-60
2023/01/06 12:02:33;;;;;;;1.93;1.10;;;;;;;;;;5005997;28;20205;-58
2023/01/06 12:05:02;;;;;;;0.97;0.97;;;;;;;;;;5012431;28;20228;-61
2023/01/06 12:07:32;;;;;;;1.07;1.07;;;;;;;;;;5008698;28;20205;-60
2023/01/06 12:10:02;;;;;;;1.97;0.90;;;;;;;;;;5005305;28;20217;-58
2023/01/06 12:12:31;;;;;;;1.93;1.10;;;;;;;;;;5004824;28;20213;-60
2023/01/06 12:14:58;;;;;;;1.37;0.90;;;;;;;;;;5007129;28;20201;-60
2023/01/06 12:17:32;;;;;;;0.90;0.90;;;;;;;;;;5006579;28;20236;-59
2023/01/06 12:20:01;;;;;;;1.93;0.97;;;;;;;;;;5007236;28;20216;-60
2023/01/06 12:22:32;;;;;;;2.77;2.30;;;;;;;;;;5010070;28;20232;-60
2023/01/06 12:25:00;;;;;;;1.37;1.00;;;;;;;;;;5002168;28;20214;-60
2023/01/06 12:27:31;;;;;;;1.40;0.90;;;;;;;;;;4999673;28;20204;-60
2023/01/06 12:30:01;;;;;;;2.03;1.00;;;;;;;;;;5002372;28;20208;-60
2023/01/06 12:32:39;;;;;;;0.80;0.80;;;;;;;;;;5004085;28;20208;-59
2023/01/06 12:35:07;;;;;;;2.10;1.00;;;;;;;;;;5006564;28;20235;-60
2023/01/06 12:37:37;;;;;;;0.97;0.90;;;;;;;;;;5002605;28;20217;-60
2023/01/06 12:40:09;;;;;;;0.90;0.90;;;;;;;;;;5003277;28;20208;-57
2023/01/06 12:42:40;;;;;;;1.33;1.00;;;;;;;;;;5008567;28;20216;-60
2023/01/06 12:45:14;;;;;;;1.00;0.80;;;;;;;;;;5004568;28;20200;-61
2023/01/06 12:47:45;;;;;;;1.37;1.10;;;;;;;;;;5000953;28;20232;-61
2023/01/06 12:50:17;;;;;;;1.03;0.83;;;;;;;;;;5002585;28;20216;-61
2023/01/06 12:52:47;;;;;;;1.77;0.87;;;;;;;;;;5008149;28;20197;-61
2023/01/06 12:55:16;;;;;;;2.20;0.97;;;;;;;;;;5007996;28;20208;-61
2023/01/06 12:57:49;;;;;;;1.10;1.00;;;;;;;;;;5003704;28;20233;-61
2023/01/06 13:00:27;;;;;;;1.00;1.00;;;;;;;;;;5006297;28;20247;-61
2023/01/06 13:03:03;;;;;;;2.30;1.10;;;;;;;;;;5011544;28;20196;-60
2023/01/06 13:05:51;;;;;;;1.27;0.97;;;;;;;;;;5012259;28;20204;-60
2023/01/06 13:08:35;;;;;;;1.00;1.00;;;;;;;;;;5005299;28;20198;-61
2023/01/06 13:11:08;;;;;;;2.10;1.00;;;;;;;;;;5007829;28;20255;-62
2023/01/06 13:13:47;;;;;;;1.10;1.10;;;;;;;;;;5012289;28;20201;-61
2023/01/06 13:16:19;;;;;;;1.10;1.00;;;;;;;;;;5000300;28;20208;-57
2023/01/06 13:18:49;;;;;;;1.10;1.00;;;;;;;;;;4994583;28;20239;-60
2023/01/06 13:21:20;;;;;;;1.00;1.00;;;;;;;;;;5000145;28;20212;-59
2023/01/06 13:23:56;;;;;;;1.43;0.70;;;;;;;;;;5001169;28;20201;-60
2023/01/06 13:26:32;;;;;;;1.33;0.90;;;;;;;;;;5009725;28;20200;-61
2023/01/06 13:29:03;;;;;;;0.80;0.80;;;;;;;;;;5005601;28;20203;-61
2023/01/06 13:31:42;;;;;;;0.80;0.80;;;;;;;;;;5010403;28;20201;-61
2023/01/06 13:34:26;;;;;;;1.43;0.90;;;;;;;;;;5005928;28;20207;-60
2023/01/06 13:37:03;;;;;;;0.90;0.73;;;;;;;;;;5003270;28;20209;-60
2023/01/06 13:39:32;;;;;;;1.60;0.60;;;;;;;;;;5005529;28;20221;-61
2023/01/06 13:42:00;;;;;;;1.80;0.70;;;;;;;;;;5010840;28;20209;-61
2023/01/06 13:44:30;;;;;;;0.93;0.73;;;;;;;;;;5009414;28;20210;-62
2023/01/06 13:47:02;;;;;;;1.07;0.80;;;;;;;;;;5006721;28;20200;-61
2023/01/06 13:49:30;;;;;;;0.73;0.73;;;;;;;;;;5000886;28;20201;-60
2023/01/06 13:51:58;;;;;;;0.80;0.73;;;;;;;;;;5007772;28;20205;-61
2023/01/06 13:54:52;;;;;;;0.60;0.60;;;;;;;;;;5009596;28;20204;-59
2023/01/06 13:57:26;;;;;;;0.50;0.50;;;;;;;;;;4968358;28;20208;-60
2023/01/06 13:59:54;;;;;;;1.47;0.70;;;;;;;;;;5007923;28;20224;-61
2023/01/06 14:02:41;;;;;;;0.50;0.50;;;;;;;;;;5009977;28;20220;-61
2023/01/06 14:05:30;;;;;;;1.33;0.90;;;;;;;;;;5008925;28;20201;-61
2023/01/06 14:07:58;;;;;;;0.70;0.70;;;;;;;;;;5007982;28;20213;-61
2023/01/06 14:10:32;;;;;;;1.60;0.70;;;;;;;;;;5003598;28;20232;-62
2023/01/06 14:12:59;;;;;;;0.70;0.70;;;;;;;;;;5002401;28;20202;-61
2023/01/06 14:15:30;;;;;;;0.50;0.50;;;;;;;;;;5009247;28;20232;-61
2023/01/06 14:17:57;;;;;;;0.80;0.80;;;;;;;;;;5005675;28;20275;-61
2023/01/06 14:20:29;;;;;;;0.70;0.57;;;;;;;;;;5010709;28;20243;-61
2023/01/06 14:23:01;;;;;;;0.97;0.90;;;;;;;;;;5007152;28;20208;-60
2023/01/06 14:25:29;;;;;;;2.47;0.80;;;;;;;;;;5010820;28;20216;-61
2023/01/06 14:28:06;;;;;;;0.77;0.77;;;;;;;;;;5004169;28;20217;-60
2023/01/06 14:30:34;;;;;;;1.00;1.00;;;;;;;;;;5007087;28;20215;-61
2023/01/06 14:33:02;;;;;;;0.83;0.70;;;;;;;;;;5000467;28;20212;-58
2023/01/06 14:35:34;;;;;;;1.53;0.80;;;;;;;;;;5004593;28;20208;-61
2023/01/06 14:38:02;;;;;;;0.40;0.40;;;;;;;;;;5009267;28;20299;-61
2023/01/06 14:40:31;;;;;;;1.23;0.70;;;;;;;;;;5004534;28;20217;-61
2023/01/06 14:43:00;;;;;;;1.37;0.70;;;;;;;;;;4995432;28;20205;-58
2023/01/06 14:45:28;;;;;;;1.00;0.80;;;;;;;;;;5005815;28;20405;-61
2023/01/06 14:47:57;;;;;;;0.70;0.70;;;;;;;;;;5002389;28;20202;-61
2023/01/06 14:50:26;;;;;;;0.70;0.70;;;;;;;;;;5004760;28;20217;-61
2023/01/06 14:52:56;;;;;;;0.93;0.80;;;;;;;;;;5007280;28;20201;-61
2023/01/06 14:55:24;;;;;;;0.97;0.70;;;;;;;;;;5004924;28;20213;-61
2023/01/06 14:57:52;;;;;;;1.23;0.80;;;;;;;;;;4999078;28;20219;-60
2023/01/06 15:00:22;;;;;;;1.13;0.90;;;;;;;;;;5002656;28;20283;-61
2023/01/06 15:02:50;;;;;;;2.10;0.73;;;;;;;;;;5002242;28;20231;-61
2023/01/06 15:05:18;;;;;;;1.50;0.90;;;;;;;;;;5000710;28;20208;-60